sensor_id;sensor_type;location;lat;lon;timestamp;P1;durP1;ratioP1;P2;durP2;ratioP2
9370;SDS011;4725;48.384;8.984;2022-07-29T00:00:23;2.63;;;1.85;;
9370;SDS011;4725;48.384;8.984;2022-07-29T00:02:50;11.85;;;2.17;;
9370;SDS011;4725;48.384;8.984;2022-07-29T00:05:17;4.60;;;2.17;;
9370;SDS011;4725;48.384;8.984;2022-07-29T00:07:45;2.33;;;2.13;;
9370;SDS011;4725;48.384;8.984;2022-07-29T00:10:12;6.43;;;2.22;;
9370;SDS011;4725;48.384;8.984;2022-07-29T00:12:39;3.70;;;2.30;;
9370;SDS011;4725;48.384;8.984;2022-07-29T00:15:06;2.08;;;1.83;;
9370;SDS011;4725;48.384;8.984;2022-07-29T00:17:34;3.92;;;1.77;;
9370;SDS011;4725;48.384;8.984;2022-07-29T00:20:01;2.35;;;2.15;;
9370;SDS011;4725;48.384;8.984;2022-07-29T00:22:28;2.55;;;1.98;;
9370;SDS011;4725;48.384;8.984;2022-07-29T00:24:57;1.95;;;1.80;;
9370;SDS011;4725;48.384;8.984;2022-07-29T00:27:23;5.78;;;2.60;;
9370;SDS011;4725;48.384;8.984;2022-07-29T00:29:50;3.50;;;2.47;;
9370;SDS011;4725;48.384;8.984;2022-07-29T00:32:17;3.22;;;2.38;;
9370;SDS011;4725;48.384;8.984;2022-07-29T00:34:44;4.43;;;2.17;;
9370;SDS011;4725;48.384;8.984;2022-07-29T00:37:28;2.53;;;2.20;;
9370;SDS011;4725;48.384;8.984;2022-07-29T00:39:57;2.60;;;2.03;;
9370;SDS011;4725;48.384;8.984;2022-07-29T00:42:24;4.05;;;2.05;;
9370;SDS011;4725;48.384;8.984;2022-07-29T00:44:51;2.75;;;2.20;;
9370;SDS011;4725;48.384;8.984;2022-07-29T00:47:17;2.85;;;2.15;;
9370;SDS011;4725;48.384;8.984;2022-07-29T00:49:44;5.38;;;2.35;;
9370;SDS011;4725;48.384;8.984;2022-07-29T00:52:12;2.28;;;2.08;;
9370;SDS011;4725;48.384;8.984;2022-07-29T00:54:39;2.33;;;2.13;;
9370;SDS011;4725;48.384;8.984;2022-07-29T00:57:08;4.38;;;2.38;;
9370;SDS011;4725;48.384;8.984;2022-07-29T00:59:35;6.20;;;2.30;;
9370;SDS011;4725;48.384;8.984;2022-07-29T01:02:02;2.40;;;2.20;;
9370;SDS011;4725;48.384;8.984;2022-07-29T01:04:29;3.55;;;2.17;;
9370;SDS011;4725;48.384;8.984;2022-07-29T01:06:57;2.15;;;1.95;;
9370;SDS011;4725;48.384;8.984;2022-07-29T01:09:25;4.22;;;2.30;;
9370;SDS011;4725;48.384;8.984;2022-07-29T01:11:53;2.60;;;2.40;;
9370;SDS011;4725;48.384;8.984;2022-07-29T01:14:22;2.97;;;1.90;;
9370;SDS011;4725;48.384;8.984;2022-07-29T01:16:51;2.30;;;2.10;;
9370;SDS011;4725;48.384;8.984;2022-07-29T01:19:29;2.20;;;2.00;;
9370;SDS011;4725;48.384;8.984;2022-07-29T01:22:14;2.40;;;2.20;;
9370;SDS011;4725;48.384;8.984;2022-07-29T01:24:57;2.38;;;2.17;;
9370;SDS011;4725;48.384;8.984;2022-07-29T01:27:38;2.40;;;2.20;;
9370;SDS011;4725;48.384;8.984;2022-07-29T01:30:15;2.80;;;2.40;;
9370;SDS011;4725;48.384;8.984;2022-07-29T01:32:43;2.20;;;2.00;;
9370;SDS011;4725;48.384;8.984;2022-07-29T01:35:17;2.42;;;2.17;;
9370;SDS011;4725;48.384;8.984;2022-07-29T01:37:47;2.38;;;2.17;;
9370;SDS011;4725;48.384;8.984;2022-07-29T01:40:19;2.60;;;2.40;;
9370;SDS011;4725;48.384;8.984;2022-07-29T01:42:48;2.28;;;2.08;;
9370;SDS011;4725;48.384;8.984;2022-07-29T01:45:21;2.65;;;2.45;;
9370;SDS011;4725;48.384;8.984;2022-07-29T01:47:54;3.40;;;2.30;;
9370;SDS011;4725;48.384;8.984;2022-07-29T01:50:28;2.55;;;2.35;;
9370;SDS011;4725;48.384;8.984;2022-07-29T01:53:00;2.58;;;2.28;;
9370;SDS011;4725;48.384;8.984;2022-07-29T01:55:31;5.22;;;2.10;;
9370;SDS011;4725;48.384;8.984;2022-07-29T01:58:02;4.82;;;2.80;;
9370;SDS011;4725;48.384;8.984;2022-07-29T02:00:32;3.00;;;2.70;;
9370;SDS011;4725;48.384;8.984;2022-07-29T02:03:00;3.45;;;2.10;;
9370;SDS011;4725;48.384;8.984;2022-07-29T02:05:31;2.63;;;2.40;;
9370;SDS011;4725;48.384;8.984;2022-07-29T02:08:00;4.15;;;2.70;;
9370;SDS011;4725;48.384;8.984;2022-07-29T02:10:29;2.55;;;2.35;;
9370;SDS011;4725;48.384;8.984;2022-07-29T02:12:58;2.88;;;2.20;;
9370;SDS011;4725;48.384;8.984;2022-07-29T02:15:28;2.13;;;1.92;;
9370;SDS011;4725;48.384;8.984;2022-07-29T02:18:00;3.08;;;1.85;;
9370;SDS011;4725;48.384;8.984;2022-07-29T02:20:29;2.50;;;2.30;;
9370;SDS011;4725;48.384;8.984;2022-07-29T02:22:57;2.05;;;1.90;;
9370;SDS011;4725;48.384;8.984;2022-07-29T02:25:25;4.80;;;2.25;;
9370;SDS011;4725;48.384;8.984;2022-07-29T02:27:53;5.22;;;2.33;;
9370;SDS011;4725;48.384;8.984;2022-07-29T02:30:21;2.10;;;2.00;;
9370;SDS011;4725;48.384;8.984;2022-07-29T02:32:51;2.22;;;1.90;;
9370;SDS011;4725;48.384;8.984;2022-07-29T02:35:19;2.05;;;1.88;;
9370;SDS011;4725;48.384;8.984;2022-07-29T02:37:47;1.95;;;1.75;;
9370;SDS011;4725;48.384;8.984;2022-07-29T02:40:30;2.35;;;2.00;;
9370;SDS011;4725;48.384;8.984;2022-07-29T02:42:58;2.40;;;1.80;;
9370;SDS011;4725;48.384;8.984;2022-07-29T02:45:26;3.47;;;2.15;;
9370;SDS011;4725;48.384;8.984;2022-07-29T02:47:56;2.00;;;1.83;;
9370;SDS011;4725;48.384;8.984;2022-07-29T02:50:27;3.10;;;2.00;;
9370;SDS011;4725;48.384;8.984;2022-07-29T02:53:00;4.78;;;2.00;;
9370;SDS011;4725;48.384;8.984;2022-07-29T02:55:34;5.15;;;1.95;;
9370;SDS011;4725;48.384;8.984;2022-07-29T02:58:06;2.95;;;1.95;;
9370;SDS011;4725;48.384;8.984;2022-07-29T03:00:39;4.05;;;2.00;;
9370;SDS011;4725;48.384;8.984;2022-07-29T03:03:09;3.05;;;2.00;;
9370;SDS011;4725;48.384;8.984;2022-07-29T03:05:39;5.93;;;2.95;;
9370;SDS011;4725;48.384;8.984;2022-07-29T03:08:07;5.88;;;2.72;;
9370;SDS011;4725;48.384;8.984;2022-07-29T03:10:36;2.67;;;2.00;;
9370;SDS011;4725;48.384;8.984;2022-07-29T03:13:05;5.57;;;2.22;;
9370;SDS011;4725;48.384;8.984;2022-07-29T03:15:34;4.38;;;2.42;;
9370;SDS011;4725;48.384;8.984;2022-07-29T03:18:01;7.43;;;2.45;;
9370;SDS011;4725;48.384;8.984;2022-07-29T03:20:31;5.85;;;2.70;;
9370;SDS011;4725;48.384;8.984;2022-07-29T03:22:58;5.30;;;2.60;;
9370;SDS011;4725;48.384;8.984;2022-07-29T03:25:25;2.67;;;2.47;;
9370;SDS011;4725;48.384;8.984;2022-07-29T03:27:53;2.58;;;2.20;;
9370;SDS011;4725;48.384;8.984;2022-07-29T03:30:22;2.90;;;2.67;;
9370;SDS011;4725;48.384;8.984;2022-07-29T03:32:49;2.90;;;2.60;;
9370;SDS011;4725;48.384;8.984;2022-07-29T03:35:16;3.22;;;2.60;;
9370;SDS011;4725;48.384;8.984;2022-07-29T03:37:45;2.80;;;2.25;;
9370;SDS011;4725;48.384;8.984;2022-07-29T03:40:13;4.35;;;2.55;;
9370;SDS011;4725;48.384;8.984;2022-07-29T03:42:44;2.05;;;1.95;;
9370;SDS011;4725;48.384;8.984;2022-07-29T03:45:13;3.35;;;2.40;;
9370;SDS011;4725;48.384;8.984;2022-07-29T03:47:45;2.97;;;2.28;;
9370;SDS011;4725;48.384;8.984;2022-07-29T03:50:15;2.90;;;2.50;;
9370;SDS011;4725;48.384;8.984;2022-07-29T03:52:45;3.22;;;2.33;;
9370;SDS011;4725;48.384;8.984;2022-07-29T03:55:12;2.73;;;2.27;;
9370;SDS011;4725;48.384;8.984;2022-07-29T03:57:40;3.17;;;2.43;;
9370;SDS011;4725;48.384;8.984;2022-07-29T04:00:09;4.40;;;2.78;;
9370;SDS011;4725;48.384;8.984;2022-07-29T04:02:36;4.95;;;3.40;;
9370;SDS011;4725;48.384;8.984;2022-07-29T04:05:05;4.97;;;3.00;;
9370;SDS011;4725;48.384;8.984;2022-07-29T04:07:37;5.23;;;3.03;;
9370;SDS011;4725;48.384;8.984;2022-07-29T04:10:06;3.17;;;2.50;;
9370;SDS011;4725;48.384;8.984;2022-07-29T04:12:33;3.73;;;3.40;;
9370;SDS011;4725;48.384;8.984;2022-07-29T04:15:01;5.00;;;2.70;;
9370;SDS011;4725;48.384;8.984;2022-07-29T04:17:28;3.15;;;2.85;;
9370;SDS011;4725;48.384;8.984;2022-07-29T04:19:55;3.70;;;2.60;;
9370;SDS011;4725;48.384;8.984;2022-07-29T04:22:22;2.83;;;2.53;;
9370;SDS011;4725;48.384;8.984;2022-07-29T04:24:49;3.63;;;2.50;;
9370;SDS011;4725;48.384;8.984;2022-07-29T04:27:18;2.83;;;2.30;;
9370;SDS011;4725;48.384;8.984;2022-07-29T04:29:45;4.55;;;2.90;;
9370;SDS011;4725;48.384;8.984;2022-07-29T04:32:12;2.72;;;2.40;;
9370;SDS011;4725;48.384;8.984;2022-07-29T04:34:38;3.47;;;2.53;;
9370;SDS011;4725;48.384;8.984;2022-07-29T04:37:06;3.88;;;2.70;;
9370;SDS011;4725;48.384;8.984;2022-07-29T04:39:32;3.90;;;2.80;;
9370;SDS011;4725;48.384;8.984;2022-07-29T04:41:59;2.67;;;2.45;;
9370;SDS011;4725;48.384;8.984;2022-07-29T04:44:28;3.63;;;2.55;;
9370;SDS011;4725;48.384;8.984;2022-07-29T04:46:55;2.97;;;2.28;;
9370;SDS011;4725;48.384;8.984;2022-07-29T04:49:22;2.15;;;1.95;;
9370;SDS011;4725;48.384;8.984;2022-07-29T04:51:49;3.25;;;2.35;;
9370;SDS011;4725;48.384;8.984;2022-07-29T04:54:16;3.05;;;2.42;;
9370;SDS011;4725;48.384;8.984;2022-07-29T04:56:43;2.10;;;1.95;;
9370;SDS011;4725;48.384;8.984;2022-07-29T04:59:11;2.22;;;2.05;;
9370;SDS011;4725;48.384;8.984;2022-07-29T05:01:39;3.97;;;2.63;;
9370;SDS011;4725;48.384;8.984;2022-07-29T05:04:06;2.28;;;2.08;;
9370;SDS011;4725;48.384;8.984;2022-07-29T05:06:33;6.97;;;2.45;;
9370;SDS011;4725;48.384;8.984;2022-07-29T05:09:00;5.65;;;2.38;;
9370;SDS011;4725;48.384;8.984;2022-07-29T05:11:27;4.65;;;2.05;;
9370;SDS011;4725;48.384;8.984;2022-07-29T05:13:54;4.47;;;2.58;;
9370;SDS011;4725;48.384;8.984;2022-07-29T05:16:21;6.18;;;2.42;;
9370;SDS011;4725;48.384;8.984;2022-07-29T05:18:49;4.85;;;3.63;;
9370;SDS011;4725;48.384;8.984;2022-07-29T05:21:16;4.10;;;2.60;;
9370;SDS011;4725;48.384;8.984;2022-07-29T05:23:43;3.85;;;2.63;;
9370;SDS011;4725;48.384;8.984;2022-07-29T05:26:10;3.05;;;2.63;;
9370;SDS011;4725;48.384;8.984;2022-07-29T05:28:37;2.95;;;2.50;;
9370;SDS011;4725;48.384;8.984;2022-07-29T05:31:04;2.88;;;2.40;;
9370;SDS011;4725;48.384;8.984;2022-07-29T05:33:31;3.08;;;2.35;;
9370;SDS011;4725;48.384;8.984;2022-07-29T05:35:59;1.88;;;1.77;;
9370;SDS011;4725;48.384;8.984;2022-07-29T05:38:26;4.03;;;2.40;;
9370;SDS011;4725;48.384;8.984;2022-07-29T05:40:55;3.85;;;2.35;;
9370;SDS011;4725;48.384;8.984;2022-07-29T05:43:23;2.78;;;2.20;;
9370;SDS011;4725;48.384;8.984;2022-07-29T05:45:50;5.20;;;2.67;;
9370;SDS011;4725;48.384;8.984;2022-07-29T05:48:17;3.53;;;2.03;;
9370;SDS011;4725;48.384;8.984;2022-07-29T05:50:44;6.95;;;2.60;;
9370;SDS011;4725;48.384;8.984;2022-07-29T05:53:12;4.18;;;2.50;;
9370;SDS011;4725;48.384;8.984;2022-07-29T05:55:39;3.58;;;2.83;;
9370;SDS011;4725;48.384;8.984;2022-07-29T05:58:06;2.90;;;2.60;;
9370;SDS011;4725;48.384;8.984;2022-07-29T06:00:33;2.60;;;2.40;;
9370;SDS011;4725;48.384;8.984;2022-07-29T06:03:00;3.55;;;1.95;;
9370;SDS011;4725;48.384;8.984;2022-07-29T06:05:27;8.98;;;2.60;;
9370;SDS011;4725;48.384;8.984;2022-07-29T06:07:54;2.53;;;2.20;;
9370;SDS011;4725;48.384;8.984;2022-07-29T06:10:23;3.60;;;2.50;;
9370;SDS011;4725;48.384;8.984;2022-07-29T06:12:50;3.17;;;2.40;;
9370;SDS011;4725;48.384;8.984;2022-07-29T06:15:17;2.53;;;2.28;;
9370;SDS011;4725;48.384;8.984;2022-07-29T06:17:44;9.43;;;2.35;;
9370;SDS011;4725;48.384;8.984;2022-07-29T06:20:11;2.38;;;2.17;;
9370;SDS011;4725;48.384;8.984;2022-07-29T06:22:38;4.45;;;2.03;;
9370;SDS011;4725;48.384;8.984;2022-07-29T06:25:05;2.50;;;2.30;;
9370;SDS011;4725;48.384;8.984;2022-07-29T06:27:34;3.63;;;2.13;;
9370;SDS011;4725;48.384;8.984;2022-07-29T06:30:01;2.80;;;2.05;;
9370;SDS011;4725;48.384;8.984;2022-07-29T06:32:31;3.88;;;2.35;;
9370;SDS011;4725;48.384;8.984;2022-07-29T06:34:58;4.35;;;2.35;;
9370;SDS011;4725;48.384;8.984;2022-07-29T06:37:25;6.25;;;2.45;;
9370;SDS011;4725;48.384;8.984;2022-07-29T06:39:52;2.95;;;2.15;;
9370;SDS011;4725;48.384;8.984;2022-07-29T06:42:42;3.13;;;2.30;;
9370;SDS011;4725;48.384;8.984;2022-07-29T06:45:10;2.78;;;2.40;;
9370;SDS011;4725;48.384;8.984;2022-07-29T06:47:37;5.63;;;2.40;;
9370;SDS011;4725;48.384;8.984;2022-07-29T06:50:05;3.08;;;2.50;;
9370;SDS011;4725;48.384;8.984;2022-07-29T06:52:36;6.25;;;2.20;;
9370;SDS011;4725;48.384;8.984;2022-07-29T06:55:04;5.05;;;2.47;;
9370;SDS011;4725;48.384;8.984;2022-07-29T06:57:31;4.35;;;2.28;;
9370;SDS011;4725;48.384;8.984;2022-07-29T07:00:00;2.72;;;2.03;;
9370;SDS011;4725;48.384;8.984;2022-07-29T07:02:29;2.47;;;2.25;;
9370;SDS011;4725;48.384;8.984;2022-07-29T07:04:56;2.38;;;2.17;;
9370;SDS011;4725;48.384;8.984;2022-07-29T07:07:23;6.90;;;2.20;;
9370;SDS011;4725;48.384;8.984;2022-07-29T07:09:50;7.95;;;2.58;;
9370;SDS011;4725;48.384;8.984;2022-07-29T07:12:17;3.03;;;2.40;;
9370;SDS011;4725;48.384;8.984;2022-07-29T07:14:44;4.70;;;2.60;;
9370;SDS011;4725;48.384;8.984;2022-07-29T07:17:12;4.10;;;2.50;;
9370;SDS011;4725;48.384;8.984;2022-07-29T07:19:39;2.55;;;2.35;;
9370;SDS011;4725;48.384;8.984;2022-07-29T07:22:06;3.70;;;2.83;;
9370;SDS011;4725;48.384;8.984;2022-07-29T07:24:33;6.65;;;3.00;;
9370;SDS011;4725;48.384;8.984;2022-07-29T07:27:00;5.40;;;2.90;;
9370;SDS011;4725;48.384;8.984;2022-07-29T07:29:27;2.80;;;2.47;;
9370;SDS011;4725;48.384;8.984;2022-07-29T07:31:54;4.10;;;3.00;;
9370;SDS011;4725;48.384;8.984;2022-07-29T07:34:22;2.90;;;2.42;;
9370;SDS011;4725;48.384;8.984;2022-07-29T07:36:49;3.47;;;2.95;;
9370;SDS011;4725;48.384;8.984;2022-07-29T07:39:16;3.33;;;3.03;;
9370;SDS011;4725;48.384;8.984;2022-07-29T07:41:43;8.18;;;3.20;;
9370;SDS011;4725;48.384;8.984;2022-07-29T07:44:10;5.78;;;3.10;;
9370;SDS011;4725;48.384;8.984;2022-07-29T07:46:37;4.68;;;2.70;;
9370;SDS011;4725;48.384;8.984;2022-07-29T07:49:04;4.35;;;2.72;;
9370;SDS011;4725;48.384;8.984;2022-07-29T07:51:32;5.18;;;2.70;;
9370;SDS011;4725;48.384;8.984;2022-07-29T07:53:59;7.70;;;3.40;;
9370;SDS011;4725;48.384;8.984;2022-07-29T07:56:26;3.78;;;2.33;;
9370;SDS011;4725;48.384;8.984;2022-07-29T07:58:53;11.82;;;3.05;;
9370;SDS011;4725;48.384;8.984;2022-07-29T08:01:20;4.93;;;3.08;;
9370;SDS011;4725;48.384;8.984;2022-07-29T08:03:48;3.90;;;2.95;;
9370;SDS011;4725;48.384;8.984;2022-07-29T08:06:15;5.72;;;2.58;;
9370;SDS011;4725;48.384;8.984;2022-07-29T08:08:43;5.93;;;3.00;;
9370;SDS011;4725;48.384;8.984;2022-07-29T08:11:10;6.85;;;2.88;;
9370;SDS011;4725;48.384;8.984;2022-07-29T08:13:37;4.10;;;2.80;;
9370;SDS011;4725;48.384;8.984;2022-07-29T08:16:05;5.47;;;2.85;;
9370;SDS011;4725;48.384;8.984;2022-07-29T08:18:38;5.40;;;3.03;;
9370;SDS011;4725;48.384;8.984;2022-07-29T08:21:05;4.57;;;2.80;;
9370;SDS011;4725;48.384;8.984;2022-07-29T08:23:32;4.57;;;3.10;;
9370;SDS011;4725;48.384;8.984;2022-07-29T08:26:05;5.80;;;3.00;;
9370;SDS011;4725;48.384;8.984;2022-07-29T08:28:35;3.45;;;2.25;;
9370;SDS011;4725;48.384;8.984;2022-07-29T08:31:02;6.38;;;2.78;;
9370;SDS011;4725;48.384;8.984;2022-07-29T08:33:29;4.22;;;2.50;;
9370;SDS011;4725;48.384;8.984;2022-07-29T08:35:56;3.10;;;2.38;;
9370;SDS011;4725;48.384;8.984;2022-07-29T08:38:24;7.50;;;3.08;;
9370;SDS011;4725;48.384;8.984;2022-07-29T08:40:52;3.60;;;2.85;;
9370;SDS011;4725;48.384;8.984;2022-07-29T08:43:21;4.35;;;2.90;;
9370;SDS011;4725;48.384;8.984;2022-07-29T08:45:49;4.25;;;2.72;;
9370;SDS011;4725;48.384;8.984;2022-07-29T08:48:17;3.92;;;2.72;;
9370;SDS011;4725;48.384;8.984;2022-07-29T08:50:45;5.20;;;3.55;;
9370;SDS011;4725;48.384;8.984;2022-07-29T08:53:14;6.68;;;2.78;;
9370;SDS011;4725;48.384;8.984;2022-07-29T08:55:42;4.32;;;3.03;;
9370;SDS011;4725;48.384;8.984;2022-07-29T08:58:10;5.55;;;3.15;;
9370;SDS011;4725;48.384;8.984;2022-07-29T09:00:41;3.20;;;2.85;;
9370;SDS011;4725;48.384;8.984;2022-07-29T09:03:09;2.97;;;2.67;;
9370;SDS011;4725;48.384;8.984;2022-07-29T09:05:44;3.53;;;2.85;;
9370;SDS011;4725;48.384;8.984;2022-07-29T09:08:12;3.33;;;2.72;;
9370;SDS011;4725;48.384;8.984;2022-07-29T09:10:39;4.40;;;3.03;;
9370;SDS011;4725;48.384;8.984;2022-07-29T09:13:07;6.10;;;2.95;;
9370;SDS011;4725;48.384;8.984;2022-07-29T09:15:34;4.63;;;3.05;;
9370;SDS011;4725;48.384;8.984;2022-07-29T09:18:02;3.53;;;3.13;;
9370;SDS011;4725;48.384;8.984;2022-07-29T09:20:29;10.73;;;2.95;;
9370;SDS011;4725;48.384;8.984;2022-07-29T09:23:10;4.45;;;2.63;;
9370;SDS011;4725;48.384;8.984;2022-07-29T09:25:37;3.17;;;2.55;;
9370;SDS011;4725;48.384;8.984;2022-07-29T09:28:06;3.35;;;3.05;;
9370;SDS011;4725;48.384;8.984;2022-07-29T09:30:33;4.40;;;2.67;;
9370;SDS011;4725;48.384;8.984;2022-07-29T09:33:03;5.57;;;2.85;;
9370;SDS011;4725;48.384;8.984;2022-07-29T09:35:30;5.40;;;3.13;;
9370;SDS011;4725;48.384;8.984;2022-07-29T09:37:57;2.60;;;2.40;;
9370;SDS011;4725;48.384;8.984;2022-07-29T09:40:35;6.60;;;3.00;;
9370;SDS011;4725;48.384;8.984;2022-07-29T09:43:08;3.63;;;2.90;;
9370;SDS011;4725;48.384;8.984;2022-07-29T09:45:36;5.78;;;2.70;;
9370;SDS011;4725;48.384;8.984;2022-07-29T09:48:14;3.20;;;2.90;;
9370;SDS011;4725;48.384;8.984;2022-07-29T09:50:43;3.60;;;2.67;;
9370;SDS011;4725;48.384;8.984;2022-07-29T09:53:12;6.20;;;3.10;;
9370;SDS011;4725;48.384;8.984;2022-07-29T09:55:55;6.18;;;2.85;;
9370;SDS011;4725;48.384;8.984;2022-07-29T09:58:22;5.63;;;3.10;;
9370;SDS011;4725;48.384;8.984;2022-07-29T10:00:50;4.35;;;2.70;;
9370;SDS011;4725;48.384;8.984;2022-07-29T10:03:19;3.58;;;3.10;;
9370;SDS011;4725;48.384;8.984;2022-07-29T10:05:47;7.78;;;2.70;;
9370;SDS011;4725;48.384;8.984;2022-07-29T10:08:31;4.55;;;2.72;;
9370;SDS011;4725;48.384;8.984;2022-07-29T10:11:08;4.72;;;2.78;;
9370;SDS011;4725;48.384;8.984;2022-07-29T10:13:36;6.00;;;3.03;;
9370;SDS011;4725;48.384;8.984;2022-07-29T10:16:04;5.25;;;2.88;;
9370;SDS011;4725;48.384;8.984;2022-07-29T10:18:34;6.93;;;3.25;;
9370;SDS011;4725;48.384;8.984;2022-07-29T10:21:03;3.85;;;2.50;;
9370;SDS011;4725;48.384;8.984;2022-07-29T10:23:31;2.88;;;2.58;;
9370;SDS011;4725;48.384;8.984;2022-07-29T10:25:58;6.07;;;3.13;;
9370;SDS011;4725;48.384;8.984;2022-07-29T10:28:25;7.50;;;3.03;;
9370;SDS011;4725;48.384;8.984;2022-07-29T10:30:52;3.72;;;3.15;;
9370;SDS011;4725;48.384;8.984;2022-07-29T10:33:31;2.90;;;2.60;;
9370;SDS011;4725;48.384;8.984;2022-07-29T10:36:23;4.05;;;2.67;;
9370;SDS011;4725;48.384;8.984;2022-07-29T10:39:05;5.32;;;2.50;;
9370;SDS011;4725;48.384;8.984;2022-07-29T10:41:47;4.35;;;2.90;;
9370;SDS011;4725;48.384;8.984;2022-07-29T10:44:22;7.43;;;2.90;;
9370;SDS011;4725;48.384;8.984;2022-07-29T10:46:51;8.23;;;3.10;;
9370;SDS011;4725;48.384;8.984;2022-07-29T10:49:20;2.88;;;2.40;;
9370;SDS011;4725;48.384;8.984;2022-07-29T10:51:53;4.32;;;2.58;;
9370;SDS011;4725;48.384;8.984;2022-07-29T10:54:41;3.72;;;2.50;;
9370;SDS011;4725;48.384;8.984;2022-07-29T10:57:11;4.40;;;2.60;;
9370;SDS011;4725;48.384;8.984;2022-07-29T10:59:40;5.30;;;2.60;;
9370;SDS011;4725;48.384;8.984;2022-07-29T11:05:10;3.75;;;2.70;;
9370;SDS011;4725;48.384;8.984;2022-07-29T11:07:39;5.55;;;2.60;;
9370;SDS011;4725;48.384;8.984;2022-07-29T11:10:23;4.78;;;2.85;;
9370;SDS011;4725;48.384;8.984;2022-07-29T11:12:50;3.50;;;2.72;;
9370;SDS011;4725;48.384;8.984;2022-07-29T11:15:18;5.72;;;2.88;;
9370;SDS011;4725;48.384;8.984;2022-07-29T11:18:05;4.45;;;3.00;;
9370;SDS011;4725;48.384;8.984;2022-07-29T11:20:35;8.95;;;3.45;;
9370;SDS011;4725;48.384;8.984;2022-07-29T11:23:20;2.97;;;2.63;;
9370;SDS011;4725;48.384;8.984;2022-07-29T11:28:54;6.88;;;2.80;;
9370;SDS011;4725;48.384;8.984;2022-07-29T11:31:37;2.60;;;2.40;;
9370;SDS011;4725;48.384;8.984;2022-07-29T11:34:16;3.15;;;2.70;;
9370;SDS011;4725;48.384;8.984;2022-07-29T11:39:49;3.05;;;2.30;;
9370;SDS011;4725;48.384;8.984;2022-07-29T11:42:42;2.65;;;2.40;;
9370;SDS011;4725;48.384;8.984;2022-07-29T11:45:11;2.75;;;2.30;;
9370;SDS011;4725;48.384;8.984;2022-07-29T11:47:49;3.58;;;2.63;;
9370;SDS011;4725;48.384;8.984;2022-07-29T11:50:26;5.80;;;2.35;;
9370;SDS011;4725;48.384;8.984;2022-07-29T11:52:56;2.97;;;2.67;;
9370;SDS011;4725;48.384;8.984;2022-07-29T11:55:24;3.20;;;2.55;;
9370;SDS011;4725;48.384;8.984;2022-07-29T11:57:51;7.45;;;2.70;;
9370;SDS011;4725;48.384;8.984;2022-07-29T12:00:24;3.35;;;2.58;;
9370;SDS011;4725;48.384;8.984;2022-07-29T12:02:53;5.85;;;2.65;;
9370;SDS011;4725;48.384;8.984;2022-07-29T12:05:21;8.55;;;3.25;;
9370;SDS011;4725;48.384;8.984;2022-07-29T12:07:57;5.57;;;2.78;;
9370;SDS011;4725;48.384;8.984;2022-07-29T12:10:34;7.30;;;3.50;;
9370;SDS011;4725;48.384;8.984;2022-07-29T12:13:01;4.20;;;2.90;;
9370;SDS011;4725;48.384;8.984;2022-07-29T12:15:29;11.85;;;3.63;;
9370;SDS011;4725;48.384;8.984;2022-07-29T12:17:56;0.52;;;0.52;;
9370;SDS011;4725;48.384;8.984;2022-07-29T12:20:25;0.65;;;0.65;;
9370;SDS011;4725;48.384;8.984;2022-07-29T12:22:53;0.50;;;0.50;;
9370;SDS011;4725;48.384;8.984;2022-07-29T12:25:23;0.40;;;0.40;;
9370;SDS011;4725;48.384;8.984;2022-07-29T12:27:58;0.40;;;0.40;;
9370;SDS011;4725;48.384;8.984;2022-07-29T12:30:34;0.40;;;0.40;;
9370;SDS011;4725;48.384;8.984;2022-07-29T12:33:09;0.40;;;0.40;;
9370;SDS011;4725;48.384;8.984;2022-07-29T12:35:37;0.50;;;0.50;;
9370;SDS011;4725;48.384;8.984;2022-07-29T12:38:05;0.50;;;0.50;;
9370;SDS011;4725;48.384;8.984;2022-07-29T12:40:33;0.52;;;0.52;;
9370;SDS011;4725;48.384;8.984;2022-07-29T12:43:11;0.98;;;0.98;;
9370;SDS011;4725;48.384;8.984;2022-07-29T12:45:39;0.40;;;0.40;;
9370;SDS011;4725;48.384;8.984;2022-07-29T12:48:07;0.50;;;0.50;;
9370;SDS011;4725;48.384;8.984;2022-07-29T12:50:35;0.50;;;0.50;;
9370;SDS011;4725;48.384;8.984;2022-07-29T12:53:09;0.50;;;0.50;;
9370;SDS011;4725;48.384;8.984;2022-07-29T12:55:40;0.60;;;0.60;;
9370;SDS011;4725;48.384;8.984;2022-07-29T12:58:08;0.60;;;0.60;;
9370;SDS011;4725;48.384;8.984;2022-07-29T13:00:35;0.60;;;0.60;;
9370;SDS011;4725;48.384;8.984;2022-07-29T13:03:02;0.60;;;0.60;;
9370;SDS011;4725;48.384;8.984;2022-07-29T13:05:39;0.50;;;0.50;;
9370;SDS011;4725;48.384;8.984;2022-07-29T13:08:10;0.50;;;0.50;;
9370;SDS011;4725;48.384;8.984;2022-07-29T13:10:40;0.60;;;0.60;;
9370;SDS011;4725;48.384;8.984;2022-07-29T13:13:08;0.57;;;0.57;;
9370;SDS011;4725;48.384;8.984;2022-07-29T13:15:37;0.60;;;0.60;;
9370;SDS011;4725;48.384;8.984;2022-07-29T13:18:05;0.60;;;0.60;;
9370;SDS011;4725;48.384;8.984;2022-07-29T13:20:53;0.60;;;0.60;;
9370;SDS011;4725;48.384;8.984;2022-07-29T13:23:20;0.70;;;0.70;;
9370;SDS011;4725;48.384;8.984;2022-07-29T13:25:48;0.60;;;0.60;;
9370;SDS011;4725;48.384;8.984;2022-07-29T13:28:16;0.68;;;0.68;;
9370;SDS011;4725;48.384;8.984;2022-07-29T13:30:43;0.60;;;0.60;;
9370;SDS011;4725;48.384;8.984;2022-07-29T13:33:10;5.28;;;2.92;;
9370;SDS011;4725;48.384;8.984;2022-07-29T13:35:37;5.78;;;3.53;;
9370;SDS011;4725;48.384;8.984;2022-07-29T13:38:04;4.43;;;3.33;;
9370;SDS011;4725;48.384;8.984;2022-07-29T13:40:30;3.40;;;3.10;;
9370;SDS011;4725;48.384;8.984;2022-07-29T13:43:01;4.47;;;3.28;;
9370;SDS011;4725;48.384;8.984;2022-07-29T13:45:28;4.18;;;3.03;;
9370;SDS011;4725;48.384;8.984;2022-07-29T13:47:55;3.83;;;2.97;;
9370;SDS011;4725;48.384;8.984;2022-07-29T13:50:22;4.30;;;2.90;;
9370;SDS011;4725;48.384;8.984;2022-07-29T13:52:49;4.47;;;2.95;;
9370;SDS011;4725;48.384;8.984;2022-07-29T13:55:16;3.95;;;3.63;;
9370;SDS011;4725;48.384;8.984;2022-07-29T13:57:43;6.35;;;3.60;;
9370;SDS011;4725;48.384;8.984;2022-07-29T14:00:12;4.72;;;3.55;;
9370;SDS011;4725;48.384;8.984;2022-07-29T14:02:40;4.07;;;3.28;;
9370;SDS011;4725;48.384;8.984;2022-07-29T14:05:07;3.47;;;3.15;;
9370;SDS011;4725;48.384;8.984;2022-07-29T14:07:35;8.75;;;3.40;;
9370;SDS011;4725;48.384;8.984;2022-07-29T14:10:02;4.20;;;3.40;;
9370;SDS011;4725;48.384;8.984;2022-07-29T14:12:30;5.07;;;3.10;;
9370;SDS011;4725;48.384;8.984;2022-07-29T14:14:57;3.20;;;2.88;;
9370;SDS011;4725;48.384;8.984;2022-07-29T14:17:25;4.15;;;2.90;;
9370;SDS011;4725;48.384;8.984;2022-07-29T14:19:52;4.53;;;3.20;;
9370;SDS011;4725;48.384;8.984;2022-07-29T14:22:19;5.80;;;3.25;;
9370;SDS011;4725;48.384;8.984;2022-07-29T14:24:46;3.17;;;2.97;;
9370;SDS011;4725;48.384;8.984;2022-07-29T14:27:13;5.35;;;3.28;;
9370;SDS011;4725;48.384;8.984;2022-07-29T14:29:40;4.05;;;2.90;;
9370;SDS011;4725;48.384;8.984;2022-07-29T14:32:07;5.15;;;2.90;;
9370;SDS011;4725;48.384;8.984;2022-07-29T14:34:36;5.25;;;3.03;;
9370;SDS011;4725;48.384;8.984;2022-07-29T14:37:04;3.60;;;3.30;;
9370;SDS011;4725;48.384;8.984;2022-07-29T14:39:31;3.42;;;3.00;;
9370;SDS011;4725;48.384;8.984;2022-07-29T14:41:58;3.97;;;3.42;;
9370;SDS011;4725;48.384;8.984;2022-07-29T14:44:25;5.22;;;3.17;;
9370;SDS011;4725;48.384;8.984;2022-07-29T14:46:56;7.43;;;3.47;;
9370;SDS011;4725;48.384;8.984;2022-07-29T14:49:24;6.75;;;3.55;;
9370;SDS011;4725;48.384;8.984;2022-07-29T14:51:52;4.20;;;3.50;;
9370;SDS011;4725;48.384;8.984;2022-07-29T14:54:19;3.47;;;3.05;;
9370;SDS011;4725;48.384;8.984;2022-07-29T14:56:46;3.47;;;3.10;;
9370;SDS011;4725;48.384;8.984;2022-07-29T14:59:14;3.78;;;3.47;;
9370;SDS011;4725;48.384;8.984;2022-07-29T15:01:41;3.50;;;3.20;;
9370;SDS011;4725;48.384;8.984;2022-07-29T15:04:08;4.28;;;3.20;;
9370;SDS011;4725;48.384;8.984;2022-07-29T15:06:35;5.75;;;3.55;;
9370;SDS011;4725;48.384;8.984;2022-07-29T15:09:04;3.08;;;2.78;;
9370;SDS011;4725;48.384;8.984;2022-07-29T15:11:31;5.10;;;3.60;;
9370;SDS011;4725;48.384;8.984;2022-07-29T15:13:58;4.00;;;3.35;;
9370;SDS011;4725;48.384;8.984;2022-07-29T15:16:25;4.03;;;2.90;;
9370;SDS011;4725;48.384;8.984;2022-07-29T15:18:52;5.03;;;2.78;;
9370;SDS011;4725;48.384;8.984;2022-07-29T15:21:21;5.57;;;3.30;;
9370;SDS011;4725;48.384;8.984;2022-07-29T15:23:48;4.40;;;4.00;;
9370;SDS011;4725;48.384;8.984;2022-07-29T15:26:17;4.72;;;4.25;;
9370;SDS011;4725;48.384;8.984;2022-07-29T15:28:44;7.90;;;3.97;;
9370;SDS011;4725;48.384;8.984;2022-07-29T15:31:11;6.82;;;3.60;;
9370;SDS011;4725;48.384;8.984;2022-07-29T15:33:39;3.55;;;3.17;;
9370;SDS011;4725;48.384;8.984;2022-07-29T15:36:06;6.00;;;3.67;;